Costa Luminosa — ICGU — position and weather

sailwx.info

Track history (hours):
 
Tides and Currents Weather Stations Pressure Air Temp Water Temp Dewpoint Dewpoint Depression Visibility Wind Speed Wind Dir Waves Ship Positions

Costa Luminosa

Last reported at 2018-Sep-19 02:30 UTC. Time now 2018-Sep-19 02:54 UTC.
Position N 37°26' E 025°09'.

Length 294 m; draft 8.1 m.

Type: Passenger vessel. MMSI: 247257900.

Date/timePositionNaut miles runAvg speedWind from/ knotsBaromVisibWave heightAir tempDewpointWater temp
2018-Sep-19 02:30N 37°26' E 025°09'612.5
2018-Sep-19 02:03N 37°21' E 025°06'112.7
2018-Sep-19 02:00N 37°21' E 025°06'612.7
2018-Sep-19 01:30N 37°15' E 025°02'512.0
2018-Sep-19 01:03N 37°10' E 024°60'111.5
2018-Sep-19 01:00N 37°09' E 024°59'  
2018-Sep-15 22:21N 44°08' E 013°21'619.5
2018-Sep-15 22:03N 44°11' E 013°14'319.0
2018-Sep-15 21:54N 44°13' E 013°11'919.2
2018-Sep-15 21:26N 44°22' E 013°08'718.8
2018-Sep-15 21:03N 44°29' E 013°05'118.7
2018-Sep-15 21:00N 44°30' E 013°04'918.7
2018-Sep-15 20:30N 44°38' E 013°00'818.6
2018-Sep-15 20:03N 44°46' E 012°56'118.6
2018-Sep-15 20:00N 44°47' E 012°56'918.9
2018-Sep-15 19:30N 44°56' E 012°50'919.0
2018-Sep-15 19:03N 45°04' E 012°44'118.8
2018-Sep-15 19:00N 45°04' E 012°44'918.1
2018-Sep-15 18:31N 45°10' E 012°34'817.4
2018-Sep-15 18:03N 45°17' E 012°30'118.4
2018-Sep-15 18:00N 45°18' E 012°30'713.5
2018-Sep-15 17:30N 45°25' E 012°27'3 7.3
2018-Sep-15 17:03N 45°26' E 012°23'0 6.0
2018-Sep-15 17:00N 45°26' E 012°23'2 4.9
2018-Sep-15 16:30N 45°26' E 012°19'1 1.2
2018-Sep-15 16:01N 45°26' E 012°19'0 0.0
2018-Sep-15 15:55N 45°26' E 012°19'0 0.0
2018-Sep-15 15:25N 45°26' E 012°19'0 0.0
2018-Sep-15 15:01N 45°26' E 012°19'0 0.0
2018-Sep-15 14:25N 45°26' E 012°19'0 0.0
2018-Sep-15 13:55N 45°26' E 012°19'0 0.0
2018-Sep-15 13:25N 45°26' E 012°19'0 0.0
2018-Sep-15 13:01N 45°26' E 012°19'0 0.0
2018-Sep-15 12:55N 45°26' E 012°19'0 0.0
2018-Sep-15 12:25N 45°26' E 012°19'0 0.0
2018-Sep-15 12:01N 45°26' E 012°19'0 0.0
2018-Sep-15 11:55N 45°26' E 012°19'0 0.0
2018-Sep-15 11:25N 45°26' E 012°19'0 0.0
2018-Sep-15 11:01N 45°26' E 012°19'0 0.0
2018-Sep-15 10:55N 45°26' E 012°19'0 0.0
2018-Sep-15 10:25N 45°26' E 012°19'0 0.0
2018-Sep-15 10:01N 45°26' E 012°19'0 0.0
2018-Sep-15 09:49N 45°26' E 012°19'0 0.0
2018-Sep-15 09:25N 45°26' E 012°19'0 0.0
2018-Sep-15 09:01N 45°26' E 012°19'0 0.0
2018-Sep-15 08:55N 45°26' E 012°19'0 0.0
2018-Sep-15 08:25N 45°26' E 012°19'0 0.0
2018-Sep-15 08:01N 45°26' E 012°19'0 0.0
2018-Sep-15 07:55N 45°26' E 012°19'0 0.0
2018-Sep-15 07:25N 45°26' E 012°19'0 0.0
2018-Sep-15 07:01N 45°26' E 012°19'0 0.0
2018-Sep-15 07:00N 45°26' E 012°19'1 2.5
2018-Sep-15 06:30N 45°26' E 012°20'2 4.3
2018-Sep-15 06:03N 45°26' E 012°23'0 6.5
2018-Sep-15 06:00N 45°26' E 012°23'4 8.1
2018-Sep-15 05:30N 45°24' E 012°28'612.8
2018-Sep-15 05:04N 45°19' E 012°32'117.6
2018-Sep-15 05:01N 45°18' E 012°32'917.4
2018-Sep-15 04:30N 45°12' E 012°41'818.1
2018-Sep-15 04:03N 45°07' E 012°49'118.2
2018-Sep-15 04:01N 45°06' E 012°50'918.1
2018-Sep-15 03:31N 44°58' E 012°55'818.4
2018-Sep-15 03:03N 44°50' E 012°59'118.3
2018-Sep-15 03:01N 44°49' E 012°60'918.3
2018-Sep-15 02:31N 44°41' E 013°04'818.4
2018-Sep-15 02:04N 44°33' E 013°08'118.5
2018-Sep-15 02:00N 44°32' E 013°08'918.5
2018-Sep-15 01:31N 44°23' E 013°12'1918.0
2018-Sep-15 00:28N 44°09' E 013°30'1818.6
2018-Sep-14 23:28N 43°57' E 013°50'816.9
2018-Sep-14 22:59N 43°54' E 014°00'1016.0
2018-Sep-14 22:20N 43°48' E 014°13'416.2
2018-Sep-14 22:04N 43°46' E 014°18'116.3
2018-Sep-14 22:01N 43°45' E 014°18'  
2018-Sep-12 16:58N 37°13' E 024°49'919.9
2018-Sep-12 16:31N 37°18' E 024°59'919.5
2018-Sep-12 16:03N 37°23' E 025°07'119.5
2018-Sep-12 16:00N 37°24' E 025°08'815.6
2018-Sep-12 15:30N 37°28' E 025°16'2 5.2
2018-Sep-12 15:03N 37°28' E 025°19'0 0.6
2018-Sep-12 15:00N 37°28' E 025°19'0 0.2
2018-Sep-12 14:30N 37°28' E 025°19'0 0.0
2018-Sep-12 14:00N 37°28' E 025°19'0 0.0
2018-Sep-12 13:30N 37°28' E 025°19'0 0.0
2018-Sep-12 10:36N 37°28' E 025°19'0 0.0
2018-Sep-12 10:27N 37°28' E 025°19'0 0.0
2018-Sep-12 09:54N 37°28' E 025°19'0 0.0
2018-Sep-12 09:30N 37°28' E 025°19'0 0.0
2018-Sep-12 09:03N 37°28' E 025°19'0 0.0
2018-Sep-12 09:00N 37°28' E 025°19'0 0.0
2018-Sep-12 08:27N 37°28' E 025°19'0 0.0
2018-Sep-12 08:03N 37°28' E 025°19'0 0.0
2018-Sep-12 08:00N 37°28' E 025°19'0 0.0
2018-Sep-12 07:30N 37°28' E 025°19'0 0.0
2018-Sep-12 07:03N 37°28' E 025°19'0 0.1
2018-Sep-12 07:00N 37°28' E 025°19'0 0.0
2018-Sep-12 06:27N 37°28' E 025°19'0 0.0
2018-Sep-12 06:03N 37°28' E 025°19'0 0.2
2018-Sep-12 06:00N 37°28' E 025°19'0 0.0
2018-Sep-12 05:27N 37°28' E 025°19'0 0.0
2018-Sep-12 05:03N 37°28' E 025°19'0 0.0
2018-Sep-12 05:00N 37°28' E 025°19'0 0.0
2018-Sep-12 04:30N 37°28' E 025°19'0 0.0
2018-Sep-12 04:00N 37°28' E 025°19'0 0.1
2018-Sep-12 03:30N 37°28' E 025°19'1 1.3
2018-Sep-12 03:03N 37°28' E 025°19'0 7.5
2018-Sep-12 03:00N 37°27' E 025°18'713.3
2018-Sep-12 02:30N 37°27' E 025°10'612.6
2018-Sep-12 02:03N 37°22' E 025°07'112.7
2018-Sep-12 02:00N 37°22' E 025°06'612.6
2018-Sep-12 01:30N 37°16' E 025°03'512.1
2018-Sep-12 01:03N 37°11' E 025°00'112.4
2018-Sep-12 01:00N 37°11' E 024°60'  
Track history (hours):
 
Tides and Currents Weather Stations Pressure Air Temp Water Temp Dewpoint Dewpoint Depression Visibility Wind Speed Wind Dir Waves Ship Positions

Costa Luminosa

Last reported at 2018-Sep-19 02:30 UTC. Time now 2018-Sep-19 02:54 UTC.
Position N 37°26' E 025°09'.

Length 294 m; draft 8.1 m.

Type: Passenger vessel. MMSI: 247257900.

Date/timePositionNaut miles runAvg speedWind from/ knotsBaromVisibWave heightAir tempDewpointWater temp
2018-Sep-19 02:30N 37°26' E 025°09'612.5
2018-Sep-19 02:03N 37°21' E 025°06'112.7
2018-Sep-19 02:00N 37°21' E 025°06'612.7
2018-Sep-19 01:30N 37°15' E 025°02'512.0
2018-Sep-19 01:03N 37°10' E 024°60'111.5
2018-Sep-19 01:00N 37°09' E 024°59'  
2018-Sep-15 22:21N 44°08' E 013°21'619.5
2018-Sep-15 22:03N 44°11' E 013°14'319.0
2018-Sep-15 21:54N 44°13' E 013°11'919.2
2018-Sep-15 21:26N 44°22' E 013°08'718.8
2018-Sep-15 21:03N 44°29' E 013°05'118.7
2018-Sep-15 21:00N 44°30' E 013°04'918.7
2018-Sep-15 20:30N 44°38' E 013°00'818.6
2018-Sep-15 20:03N 44°46' E 012°56'118.6
2018-Sep-15 20:00N 44°47' E 012°56'918.9
2018-Sep-15 19:30N 44°56' E 012°50'919.0
2018-Sep-15 19:03N 45°04' E 012°44'118.8
2018-Sep-15 19:00N 45°04' E 012°44'918.1
2018-Sep-15 18:31N 45°10' E 012°34'817.4
2018-Sep-15 18:03N 45°17' E 012°30'118.4
2018-Sep-15 18:00N 45°18' E 012°30'713.5
2018-Sep-15 17:30N 45°25' E 012°27'3 7.3
2018-Sep-15 17:03N 45°26' E 012°23'0 6.0
2018-Sep-15 17:00N 45°26' E 012°23'2 4.9
2018-Sep-15 16:30N 45°26' E 012°19'1 1.2
2018-Sep-15 16:01N 45°26' E 012°19'0 0.0
2018-Sep-15 15:55N 45°26' E 012°19'0 0.0
2018-Sep-15 15:25N 45°26' E 012°19'0 0.0
2018-Sep-15 15:01N 45°26' E 012°19'0 0.0
2018-Sep-15 14:25N 45°26' E 012°19'0 0.0
2018-Sep-15 13:55N 45°26' E 012°19'0 0.0
2018-Sep-15 13:25N 45°26' E 012°19'0 0.0
2018-Sep-15 13:01N 45°26' E 012°19'0 0.0
2018-Sep-15 12:55N 45°26' E 012°19'0 0.0
2018-Sep-15 12:25N 45°26' E 012°19'0 0.0
2018-Sep-15 12:01N 45°26' E 012°19'0 0.0
2018-Sep-15 11:55N 45°26' E 012°19'0 0.0
2018-Sep-15 11:25N 45°26' E 012°19'0 0.0
2018-Sep-15 11:01N 45°26' E 012°19'0 0.0
2018-Sep-15 10:55N 45°26' E 012°19'0 0.0
2018-Sep-15 10:25N 45°26' E 012°19'0 0.0
2018-Sep-15 10:01N 45°26' E 012°19'0 0.0
2018-Sep-15 09:49N 45°26' E 012°19'0 0.0
2018-Sep-15 09:25N 45°26' E 012°19'0 0.0
2018-Sep-15 09:01N 45°26' E 012°19'0 0.0
2018-Sep-15 08:55N 45°26' E 012°19'0 0.0
2018-Sep-15 08:25N 45°26' E 012°19'0 0.0
2018-Sep-15 08:01N 45°26' E 012°19'0 0.0
2018-Sep-15 07:55N 45°26' E 012°19'0 0.0
2018-Sep-15 07:25N 45°26' E 012°19'0 0.0
2018-Sep-15 07:01N 45°26' E 012°19'0 0.0
2018-Sep-15 07:00N 45°26' E 012°19'1 2.5
2018-Sep-15 06:30N 45°26' E 012°20'2 4.3
2018-Sep-15 06:03N 45°26' E 012°23'0 6.5
2018-Sep-15 06:00N 45°26' E 012°23'4 8.1
2018-Sep-15 05:30N 45°24' E 012°28'612.8
2018-Sep-15 05:04N 45°19' E 012°32'117.6
2018-Sep-15 05:01N 45°18' E 012°32'917.4
2018-Sep-15 04:30N 45°12' E 012°41'818.1
2018-Sep-15 04:03N 45°07' E 012°49'118.2
2018-Sep-15 04:01N 45°06' E 012°50'918.1
2018-Sep-15 03:31N 44°58' E 012°55'818.4
2018-Sep-15 03:03N 44°50' E 012°59'118.3
2018-Sep-15 03:01N 44°49' E 012°60'918.3
2018-Sep-15 02:31N 44°41' E 013°04'818.4
2018-Sep-15 02:04N 44°33' E 013°08'118.5
2018-Sep-15 02:00N 44°32' E 013°08'918.5
2018-Sep-15 01:31N 44°23' E 013°12'1918.0
2018-Sep-15 00:28N 44°09' E 013°30'1818.6
2018-Sep-14 23:28N 43°57' E 013°50'816.9
2018-Sep-14 22:59N 43°54' E 014°00'1016.0
2018-Sep-14 22:20N 43°48' E 014°13'416.2
2018-Sep-14 22:04N 43°46' E 014°18'116.3
2018-Sep-14 22:01N 43°45' E 014°18'  
2018-Sep-12 16:58N 37°13' E 024°49'919.9
2018-Sep-12 16:31N 37°18' E 024°59'919.5
2018-Sep-12 16:03N 37°23' E 025°07'119.5
2018-Sep-12 16:00N 37°24' E 025°08'815.6
2018-Sep-12 15:30N 37°28' E 025°16'2 5.2
2018-Sep-12 15:03N 37°28' E 025°19'0 0.6
2018-Sep-12 15:00N 37°28' E 025°19'0 0.2
2018-Sep-12 14:30N 37°28' E 025°19'0 0.0
2018-Sep-12 14:00N 37°28' E 025°19'0 0.0
2018-Sep-12 13:30N 37°28' E 025°19'0 0.0
2018-Sep-12 10:36N 37°28' E 025°19'0 0.0
2018-Sep-12 10:27N 37°28' E 025°19'0 0.0
2018-Sep-12 09:54N 37°28' E 025°19'0 0.0
2018-Sep-12 09:30N 37°28' E 025°19'0 0.0
2018-Sep-12 09:03N 37°28' E 025°19'0 0.0
2018-Sep-12 09:00N 37°28' E 025°19'0 0.0
2018-Sep-12 08:27N 37°28' E 025°19'0 0.0
2018-Sep-12 08:03N 37°28' E 025°19'0 0.0
2018-Sep-12 08:00N 37°28' E 025°19'0 0.0
2018-Sep-12 07:30N 37°28' E 025°19'0 0.0
2018-Sep-12 07:03N 37°28' E 025°19'0 0.1
2018-Sep-12 07:00N 37°28' E 025°19'0 0.0
2018-Sep-12 06:27N 37°28' E 025°19'0 0.0
2018-Sep-12 06:03N 37°28' E 025°19'0 0.2
2018-Sep-12 06:00N 37°28' E 025°19'0 0.0
2018-Sep-12 05:27N 37°28' E 025°19'0 0.0
2018-Sep-12 05:03N 37°28' E 025°19'0 0.0
2018-Sep-12 05:00N 37°28' E 025°19'0 0.0
2018-Sep-12 04:30N 37°28' E 025°19'0 0.0
2018-Sep-12 04:00N 37°28' E 025°19'0 0.1
2018-Sep-12 03:30N 37°28' E 025°19'1 1.3
2018-Sep-12 03:03N 37°28' E 025°19'0 7.5
2018-Sep-12 03:00N 37°27' E 025°18'713.3
2018-Sep-12 02:30N 37°27' E 025°10'612.6
2018-Sep-12 02:03N 37°22' E 025°07'112.7
2018-Sep-12 02:00N 37°22' E 025°06'612.6
2018-Sep-12 01:30N 37°16' E 025°03'512.1
2018-Sep-12 01:03N 37°11' E 025°00'112.4
2018-Sep-12 01:00N 37°11' E 024°60'  

Dump ship's entire track history